sensor_id;sensor_type;location;lat;lon;timestamp;pressure;altitude;pressure_sealevel;temperature;humidity
6680;BME280;3376;42.664;23.346;2023-04-28T00:00:35;94758.91;;;7.52;62.28
6680;BME280;3376;42.664;23.346;2023-04-28T00:03:02;94763.75;;;7.55;61.88
6680;BME280;3376;42.664;23.346;2023-04-28T00:05:28;94768.06;;;7.55;62.28
6680;BME280;3376;42.664;23.346;2023-04-28T00:07:57;94769.84;;;7.54;61.56
6680;BME280;3376;42.664;23.346;2023-04-28T00:10:23;94757.72;;;7.47;62.06
6680;BME280;3376;42.664;23.346;2023-04-28T00:12:50;94770.47;;;7.48;62.63
6680;BME280;3376;42.664;23.346;2023-04-28T00:15:17;94767.38;;;7.45;62.89
6680;BME280;3376;42.664;23.346;2023-04-28T00:17:43;94748.63;;;7.17;63.75
6680;BME280;3376;42.664;23.346;2023-04-28T00:20:10;94772.53;;;7.27;63.87
6680;BME280;3376;42.664;23.346;2023-04-28T00:22:37;94767.66;;;7.16;63.05
6680;BME280;3376;42.664;23.346;2023-04-28T00:25:08;94767.66;;;7.16;65.12
6680;BME280;3376;42.664;23.346;2023-04-28T00:27:35;94767.13;;;7.12;64.51
6680;BME280;3376;42.664;23.346;2023-04-28T00:30:01;94764.97;;;7.08;63.42
6680;BME280;3376;42.664;23.346;2023-04-28T00:32:28;94773.69;;;7.07;63.71
6680;BME280;3376;42.664;23.346;2023-04-28T00:34:56;94767.56;;;7.08;64.20
6680;BME280;3376;42.664;23.346;2023-04-28T00:37:22;94772.28;;;6.95;64.56
6680;BME280;3376;42.664;23.346;2023-04-28T00:39:53;94780.06;;;7.03;64.77
6680;BME280;3376;42.664;23.346;2023-04-28T00:42:22;94776.84;;;7.01;64.56
6680;BME280;3376;42.664;23.346;2023-04-28T00:44:49;94778.00;;;7.06;65.06
6680;BME280;3376;42.664;23.346;2023-04-28T00:47:16;94771.31;;;6.96;64.86
6680;BME280;3376;42.664;23.346;2023-04-28T00:49:43;94782.00;;;7.01;64.92
6680;BME280;3376;42.664;23.346;2023-04-28T00:52:10;94771.91;;;6.90;64.61
6680;BME280;3376;42.664;23.346;2023-04-28T00:54:37;94774.19;;;6.93;65.45
6680;BME280;3376;42.664;23.346;2023-04-28T00:57:04;94777.25;;;6.79;66.24
6680;BME280;3376;42.664;23.346;2023-04-28T00:59:32;94779.63;;;6.72;65.19
6680;BME280;3376;42.664;23.346;2023-04-28T01:01:59;94776.47;;;6.61;66.21
6680;BME280;3376;42.664;23.346;2023-04-28T01:04:28;94663.59;;;6.04;65.96
6680;BME280;3376;42.664;23.346;2023-04-28T01:06:55;94772.75;;;6.63;66.59
6680;BME280;3376;42.664;23.346;2023-04-28T01:09:22;94776.22;;;6.54;67.11
6680;BME280;3376;42.664;23.346;2023-04-28T01:11:49;94783.19;;;6.44;67.44
6680;BME280;3376;42.664;23.346;2023-04-28T01:14:15;94790.91;;;6.44;67.36
6680;BME280;3376;42.664;23.346;2023-04-28T01:16:44;94788.56;;;6.51;67.14
6680;BME280;3376;42.664;23.346;2023-04-28T01:19:17;94787.75;;;6.50;66.36
6680;BME280;3376;42.664;23.346;2023-04-28T01:21:46;94794.06;;;6.38;66.15
6680;BME280;3376;42.664;23.346;2023-04-28T01:24:14;94789.22;;;6.26;67.10
6680;BME280;3376;42.664;23.346;2023-04-28T01:26:41;94790.44;;;6.31;67.80
6680;BME280;3376;42.664;23.346;2023-04-28T01:29:08;94793.72;;;6.24;68.05
6680;BME280;3376;42.664;23.346;2023-04-28T01:31:35;94784.66;;;6.20;67.91
6680;BME280;3376;42.664;23.346;2023-04-28T01:34:02;94796.94;;;6.26;68.44
6680;BME280;3376;42.664;23.346;2023-04-28T01:36:29;94785.72;;;6.27;68.48
6680;BME280;3376;42.664;23.346;2023-04-28T01:38:57;94778.31;;;6.24;66.80
6680;BME280;3376;42.664;23.346;2023-04-28T01:41:25;94677.66;;;5.55;67.03
6680;BME280;3376;42.664;23.346;2023-04-28T01:43:52;94662.00;;;5.48;67.25
6680;BME280;3376;42.664;23.346;2023-04-28T01:46:19;94790.50;;;6.22;67.96
6680;BME280;3376;42.664;23.346;2023-04-28T01:48:45;94789.91;;;6.28;67.05
6680;BME280;3376;42.664;23.346;2023-04-28T01:51:12;94787.63;;;6.25;65.92
6680;BME280;3376;42.664;23.346;2023-04-28T01:53:39;94782.34;;;6.26;66.28
6680;BME280;3376;42.664;23.346;2023-04-28T01:56:06;94793.97;;;6.30;66.50
6680;BME280;3376;42.664;23.346;2023-04-28T01:58:34;94768.19;;;6.13;66.61
6680;BME280;3376;42.664;23.346;2023-04-28T02:01:01;94790.19;;;6.25;66.99
6680;BME280;3376;42.664;23.346;2023-04-28T02:03:27;94790.72;;;6.28;66.35
6680;BME280;3376;42.664;23.346;2023-04-28T02:05:54;94796.19;;;6.16;67.08
6680;BME280;3376;42.664;23.346;2023-04-28T02:08:21;94791.25;;;6.05;67.67
6680;BME280;3376;42.664;23.346;2023-04-28T02:10:48;94780.00;;;6.06;67.13
6680;BME280;3376;42.664;23.346;2023-04-28T02:13:15;94788.00;;;6.03;67.63
6680;BME280;3376;42.664;23.346;2023-04-28T02:15:43;94791.13;;;5.96;67.55
6680;BME280;3376;42.664;23.346;2023-04-28T02:18:10;94799.75;;;6.05;67.67
6680;BME280;3376;42.664;23.346;2023-04-28T02:20:37;94797.06;;;6.07;67.42
6680;BME280;3376;42.664;23.346;2023-04-28T02:23:04;94795.72;;;6.03;67.48
6680;BME280;3376;42.664;23.346;2023-04-28T02:25:30;94675.44;;;5.23;67.10
6680;BME280;3376;42.664;23.346;2023-04-28T02:27:57;94799.47;;;6.08;68.55
6680;BME280;3376;42.664;23.346;2023-04-28T02:30:24;94800.94;;;6.11;67.30
6680;BME280;3376;42.664;23.346;2023-04-28T02:32:52;94804.88;;;6.15;67.43
6680;BME280;3376;42.664;23.346;2023-04-28T02:35:19;94808.00;;;6.09;67.83
6680;BME280;3376;42.664;23.346;2023-04-28T02:37:46;94807.59;;;6.04;67.61
6680;BME280;3376;42.664;23.346;2023-04-28T02:40:13;94809.09;;;6.06;67.45
6680;BME280;3376;42.664;23.346;2023-04-28T02:42:39;94799.88;;;6.04;67.93
6680;BME280;3376;42.664;23.346;2023-04-28T02:45:07;94794.75;;;6.04;66.76
6680;BME280;3376;42.664;23.346;2023-04-28T02:47:33;94817.34;;;6.00;67.87
6680;BME280;3376;42.664;23.346;2023-04-28T02:50:02;94801.72;;;5.84;68.44
6680;BME280;3376;42.664;23.346;2023-04-28T02:52:28;94794.41;;;5.79;68.64
6680;BME280;3376;42.664;23.346;2023-04-28T02:54:55;94821.59;;;5.91;68.09
6680;BME280;3376;42.664;23.346;2023-04-28T02:57:22;94793.75;;;5.77;68.97
6680;BME280;3376;42.664;23.346;2023-04-28T02:59:49;94821.97;;;5.96;67.33
6680;BME280;3376;42.664;23.346;2023-04-28T03:02:16;94813.84;;;6.01;68.89
6680;BME280;3376;42.664;23.346;2023-04-28T03:04:44;94829.53;;;6.08;68.58
6680;BME280;3376;42.664;23.346;2023-04-28T03:07:13;94828.47;;;6.01;68.52
6680;BME280;3376;42.664;23.346;2023-04-28T03:09:39;94826.09;;;5.89;68.90
6680;BME280;3376;42.664;23.346;2023-04-28T03:12:06;94829.03;;;5.94;68.48
6680;BME280;3376;42.664;23.346;2023-04-28T03:14:33;94825.66;;;5.94;67.99
6680;BME280;3376;42.664;23.346;2023-04-28T03:17:00;94827.53;;;5.92;69.53
6680;BME280;3376;42.664;23.346;2023-04-28T03:19:26;94831.03;;;6.01;68.66
6680;BME280;3376;42.664;23.346;2023-04-28T03:21:53;94799.97;;;5.75;68.71
6680;BME280;3376;42.664;23.346;2023-04-28T03:24:21;94827.84;;;5.89;68.54
6680;BME280;3376;42.664;23.346;2023-04-28T03:26:48;94838.66;;;5.92;69.38
6680;BME280;3376;42.664;23.346;2023-04-28T03:29:15;94848.25;;;5.90;68.55
6680;BME280;3376;42.664;23.346;2023-04-28T03:31:42;94850.69;;;5.92;68.50
6680;BME280;3376;42.664;23.346;2023-04-28T03:34:08;94849.88;;;5.91;67.74
6680;BME280;3376;42.664;23.346;2023-04-28T03:36:35;94859.88;;;5.94;67.39
6680;BME280;3376;42.664;23.346;2023-04-28T03:39:02;94865.28;;;5.91;67.38
6680;BME280;3376;42.664;23.346;2023-04-28T03:41:30;94860.03;;;5.83;67.79
6680;BME280;3376;42.664;23.346;2023-04-28T03:43:57;94872.06;;;5.92;67.18
6680;BME280;3376;42.664;23.346;2023-04-28T03:46:24;94870.44;;;5.91;68.37
6680;BME280;3376;42.664;23.346;2023-04-28T03:48:50;94868.56;;;5.84;67.88
6680;BME280;3376;42.664;23.346;2023-04-28T03:51:17;94878.28;;;5.90;67.56
6680;BME280;3376;42.664;23.346;2023-04-28T03:53:44;94879.34;;;5.97;67.58
6680;BME280;3376;42.664;23.346;2023-04-28T03:56:11;94868.56;;;5.84;66.00
6680;BME280;3376;42.664;23.346;2023-04-28T03:58:39;94879.59;;;6.04;66.26
6680;BME280;3376;42.664;23.346;2023-04-28T04:01:05;94895.56;;;6.17;65.78
6680;BME280;3376;42.664;23.346;2023-04-28T04:03:32;94897.69;;;6.31;65.25
6680;BME280;3376;42.664;23.346;2023-04-28T04:05:59;94887.13;;;6.24;64.94
6680;BME280;3376;42.664;23.346;2023-04-28T04:08:26;94891.88;;;6.29;65.68
6680;BME280;3376;42.664;23.346;2023-04-28T04:10:53;94895.28;;;6.20;64.23
6680;BME280;3376;42.664;23.346;2023-04-28T04:13:20;94907.56;;;6.26;64.44
6680;BME280;3376;42.664;23.346;2023-04-28T04:15:48;94900.25;;;6.31;65.92
6680;BME280;3376;42.664;23.346;2023-04-28T04:18:16;94904.28;;;6.43;64.53
6680;BME280;3376;42.664;23.346;2023-04-28T04:20:43;94910.59;;;6.58;63.41
6680;BME280;3376;42.664;23.346;2023-04-28T04:23:10;94904.31;;;6.70;64.11
6680;BME280;3376;42.664;23.346;2023-04-28T04:25:37;94921.19;;;6.82;64.93
6680;BME280;3376;42.664;23.346;2023-04-28T04:28:03;94923.94;;;6.98;64.32
6680;BME280;3376;42.664;23.346;2023-04-28T04:30:30;94909.50;;;7.05;63.46
6680;BME280;3376;42.664;23.346;2023-04-28T04:32:58;94917.63;;;7.10;62.18
6680;BME280;3376;42.664;23.346;2023-04-28T04:35:25;94923.00;;;7.16;62.07
6680;BME280;3376;42.664;23.346;2023-04-28T04:37:52;94926.94;;;7.38;62.63
6680;BME280;3376;42.664;23.346;2023-04-28T04:40:19;94927.97;;;7.45;63.49
6680;BME280;3376;42.664;23.346;2023-04-28T04:42:46;94905.16;;;7.50;60.65
6680;BME280;3376;42.664;23.346;2023-04-28T04:45:12;94908.47;;;7.60;61.07
6680;BME280;3376;42.664;23.346;2023-04-28T04:47:40;94915.16;;;7.71;62.41
6680;BME280;3376;42.664;23.346;2023-04-28T04:50:09;94913.31;;;7.81;59.77
6680;BME280;3376;42.664;23.346;2023-04-28T04:52:36;94932.66;;;8.02;60.27
6680;BME280;3376;42.664;23.346;2023-04-28T04:55:04;94939.19;;;8.14;57.28
6680;BME280;3376;42.664;23.346;2023-04-28T04:57:31;94958.28;;;8.21;56.89
6680;BME280;3376;42.664;23.346;2023-04-28T04:59:58;94942.59;;;8.15;58.30
6680;BME280;3376;42.664;23.346;2023-04-28T05:02:25;94950.47;;;8.13;58.10
6680;BME280;3376;42.664;23.346;2023-04-28T05:04:51;94957.25;;;8.14;58.14
6680;BME280;3376;42.664;23.346;2023-04-28T05:07:20;94957.59;;;8.19;58.26
6680;BME280;3376;42.664;23.346;2023-04-28T05:09:46;94948.34;;;8.26;58.63
6680;BME280;3376;42.664;23.346;2023-04-28T05:12:13;94956.25;;;8.51;57.35
6680;BME280;3376;42.664;23.346;2023-04-28T05:14:40;94948.81;;;8.48;55.96
6680;BME280;3376;42.664;23.346;2023-04-28T05:17:06;94928.63;;;8.43;54.88
6680;BME280;3376;42.664;23.346;2023-04-28T05:19:33;94951.78;;;8.61;55.25
6680;BME280;3376;42.664;23.346;2023-04-28T05:22:00;94946.47;;;8.62;54.87
6680;BME280;3376;42.664;23.346;2023-04-28T05:24:28;94951.16;;;8.59;56.05
6680;BME280;3376;42.664;23.346;2023-04-28T05:26:57;94948.78;;;8.73;55.61
6680;BME280;3376;42.664;23.346;2023-04-28T05:29:24;94946.25;;;8.81;54.59
6680;BME280;3376;42.664;23.346;2023-04-28T05:31:50;94950.78;;;8.79;55.18
6680;BME280;3376;42.664;23.346;2023-04-28T05:34:17;94955.84;;;8.97;55.56
6680;BME280;3376;42.664;23.346;2023-04-28T05:36:44;94951.34;;;8.99;55.39
6680;BME280;3376;42.664;23.346;2023-04-28T05:39:11;94943.47;;;9.08;54.26
6680;BME280;3376;42.664;23.346;2023-04-28T05:41:39;94944.66;;;9.22;54.52
6680;BME280;3376;42.664;23.346;2023-04-28T05:44:06;94945.56;;;9.13;54.47
6680;BME280;3376;42.664;23.346;2023-04-28T05:46:32;94959.59;;;9.10;55.07
6680;BME280;3376;42.664;23.346;2023-04-28T05:49:00;94946.19;;;9.07;54.98
6680;BME280;3376;42.664;23.346;2023-04-28T05:51:27;94943.16;;;9.19;54.84
6680;BME280;3376;42.664;23.346;2023-04-28T05:53:54;94943.69;;;9.31;54.22
6680;BME280;3376;42.664;23.346;2023-04-28T05:56:21;94931.22;;;9.18;54.30
6680;BME280;3376;42.664;23.346;2023-04-28T05:58:49;94954.34;;;9.28;54.82
6680;BME280;3376;42.664;23.346;2023-04-28T06:01:16;94962.34;;;9.50;53.21
6680;BME280;3376;42.664;23.346;2023-04-28T06:03:43;94951.00;;;9.51;53.07
6680;BME280;3376;42.664;23.346;2023-04-28T06:06:10;94965.75;;;9.67;52.73
6680;BME280;3376;42.664;23.346;2023-04-28T06:08:37;94969.00;;;9.69;51.16
6680;BME280;3376;42.664;23.346;2023-04-28T06:11:04;94958.66;;;9.61;52.82
6680;BME280;3376;42.664;23.346;2023-04-28T06:13:31;94958.59;;;9.53;52.44
6680;BME280;3376;42.664;23.346;2023-04-28T06:15:59;94963.16;;;9.59;51.90
6680;BME280;3376;42.664;23.346;2023-04-28T06:18:26;94953.31;;;9.71;51.72
6680;BME280;3376;42.664;23.346;2023-04-28T06:20:55;94918.69;;;9.64;51.52
6680;BME280;3376;42.664;23.346;2023-04-28T06:23:21;94949.59;;;9.89;50.55
6680;BME280;3376;42.664;23.346;2023-04-28T06:25:48;94956.59;;;9.97;50.04
6680;BME280;3376;42.664;23.346;2023-04-28T06:28:15;94956.75;;;9.95;49.50
6680;BME280;3376;42.664;23.346;2023-04-28T06:30:42;94961.44;;;10.00;50.28
6680;BME280;3376;42.664;23.346;2023-04-28T06:33:10;94963.91;;;10.09;51.29
6680;BME280;3376;42.664;23.346;2023-04-28T06:35:37;94960.66;;;10.15;49.23
6680;BME280;3376;42.664;23.346;2023-04-28T06:38:04;94954.66;;;10.31;50.46
6680;BME280;3376;42.664;23.346;2023-04-28T06:40:31;94957.41;;;10.53;49.12
6680;BME280;3376;42.664;23.346;2023-04-28T06:42:58;94935.69;;;10.54;48.65
6680;BME280;3376;42.664;23.346;2023-04-28T06:45:25;94956.38;;;10.87;47.66
6680;BME280;3376;42.664;23.346;2023-04-28T06:47:52;94943.09;;;11.20;47.17
6680;BME280;3376;42.664;23.346;2023-04-28T06:50:21;94946.78;;;11.34;46.16
6680;BME280;3376;42.664;23.346;2023-04-28T06:52:48;94941.63;;;11.26;47.20
6680;BME280;3376;42.664;23.346;2023-04-28T06:55:15;94941.94;;;11.31;45.94
6680;BME280;3376;42.664;23.346;2023-04-28T06:57:42;94879.22;;;10.89;45.63
6680;BME280;3376;42.664;23.346;2023-04-28T07:00:10;94951.06;;;11.19;45.23
6680;BME280;3376;42.664;23.346;2023-04-28T07:02:37;94946.81;;;11.26;45.07
6680;BME280;3376;42.664;23.346;2023-04-28T07:05:04;94944.22;;;11.26;44.99
6680;BME280;3376;42.664;23.346;2023-04-28T07:07:32;94949.78;;;11.45;43.99
6680;BME280;3376;42.664;23.346;2023-04-28T07:09:59;94952.69;;;11.50;43.95
6680;BME280;3376;42.664;23.346;2023-04-28T07:12:26;94957.69;;;11.52;44.60
6680;BME280;3376;42.664;23.346;2023-04-28T07:14:53;94932.38;;;11.54;44.07
6680;BME280;3376;42.664;23.346;2023-04-28T07:17:20;94948.47;;;11.49;44.74
6680;BME280;3376;42.664;23.346;2023-04-28T07:19:46;94932.38;;;11.54;44.89
6680;BME280;3376;42.664;23.346;2023-04-28T07:22:15;94946.88;;;11.79;44.63
6680;BME280;3376;42.664;23.346;2023-04-28T07:24:43;94914.09;;;11.78;44.17
6680;BME280;3376;42.664;23.346;2023-04-28T07:27:10;94950.09;;;12.26;43.39
6680;BME280;3376;42.664;23.346;2023-04-28T07:29:37;94929.97;;;12.43;42.85
6680;BME280;3376;42.664;23.346;2023-04-28T07:32:04;94939.75;;;12.41;42.47
6680;BME280;3376;42.664;23.346;2023-04-28T07:34:33;94934.28;;;12.50;42.33
6680;BME280;3376;42.664;23.346;2023-04-28T07:37:00;94937.78;;;12.72;41.94
6680;BME280;3376;42.664;23.346;2023-04-28T07:39:27;94927.25;;;12.73;41.68
6680;BME280;3376;42.664;23.346;2023-04-28T07:41:55;94934.31;;;12.79;42.45
6680;BME280;3376;42.664;23.346;2023-04-28T07:44:23;94939.78;;;12.84;42.16
6680;BME280;3376;42.664;23.346;2023-04-28T07:46:50;94949.47;;;12.90;41.88
6680;BME280;3376;42.664;23.346;2023-04-28T07:49:16;94941.13;;;12.80;42.77
6680;BME280;3376;42.664;23.346;2023-04-28T07:51:43;94934.66;;;12.91;41.88
6680;BME280;3376;42.664;23.346;2023-04-28T07:54:10;94916.66;;;12.89;41.62
6680;BME280;3376;42.664;23.346;2023-04-28T07:56:37;94934.72;;;13.06;41.58
6680;BME280;3376;42.664;23.346;2023-04-28T07:59:05;94931.75;;;13.23;41.53
6680;BME280;3376;42.664;23.346;2023-04-28T08:01:32;94934.56;;;13.43;40.42
6680;BME280;3376;42.664;23.346;2023-04-28T08:03:58;94942.97;;;13.59;40.35
6680;BME280;3376;42.664;23.346;2023-04-28T08:06:25;94927.94;;;13.76;39.54
6680;BME280;3376;42.664;23.346;2023-04-28T08:08:52;94937.94;;;13.93;38.64
6680;BME280;3376;42.664;23.346;2023-04-28T08:11:20;94931.94;;;14.14;38.54
6680;BME280;3376;42.664;23.346;2023-04-28T08:13:47;94936.63;;;14.25;37.72
6680;BME280;3376;42.664;23.346;2023-04-28T08:16:15;94931.69;;;14.30;38.16
6680;BME280;3376;42.664;23.346;2023-04-28T08:18:42;94934.13;;;14.38;37.74
6680;BME280;3376;42.664;23.346;2023-04-28T08:21:08;94933.50;;;14.57;37.19
6680;BME280;3376;42.664;23.346;2023-04-28T08:23:35;94932.72;;;14.57;35.81
6680;BME280;3376;42.664;23.346;2023-04-28T08:26:03;94940.34;;;14.58;35.72
6680;BME280;3376;42.664;23.346;2023-04-28T08:28:30;94915.41;;;14.49;35.81
6680;BME280;3376;42.664;23.346;2023-04-28T08:30:59;94919.94;;;14.68;35.20
6680;BME280;3376;42.664;23.346;2023-04-28T08:33:27;94930.19;;;14.70;35.14
6680;BME280;3376;42.664;23.346;2023-04-28T08:35:54;94925.63;;;14.78;35.68
6680;BME280;3376;42.664;23.346;2023-04-28T08:38:21;94916.66;;;14.87;35.67
6680;BME280;3376;42.664;23.346;2023-04-28T08:40:49;94908.06;;;14.66;34.18
6680;BME280;3376;42.664;23.346;2023-04-28T08:43:16;94914.59;;;14.83;36.68
6680;BME280;3376;42.664;23.346;2023-04-28T08:45:45;94924.78;;;15.05;35.88
6680;BME280;3376;42.664;23.346;2023-04-28T08:48:16;94919.19;;;15.43;34.12
6680;BME280;3376;42.664;23.346;2023-04-28T08:50:49;94917.69;;;15.33;33.86
6680;BME280;3376;42.664;23.346;2023-04-28T08:53:21;94915.75;;;15.42;35.16
6680;BME280;3376;42.664;23.346;2023-04-28T08:55:51;94908.50;;;15.03;35.21
6680;BME280;3376;42.664;23.346;2023-04-28T08:58:20;94801.47;;;14.15;35.15
6680;BME280;3376;42.664;23.346;2023-04-28T09:00:47;94911.16;;;14.76;34.42
6680;BME280;3376;42.664;23.346;2023-04-28T09:03:14;94915.97;;;15.06;35.50
6680;BME280;3376;42.664;23.346;2023-04-28T09:05:41;94909.53;;;15.09;38.80
6680;BME280;3376;42.664;23.346;2023-04-28T09:08:09;94917.09;;;15.31;37.03
6680;BME280;3376;42.664;23.346;2023-04-28T09:10:37;94909.13;;;15.46;35.86
6680;BME280;3376;42.664;23.346;2023-04-28T09:13:04;94906.19;;;15.62;36.21
6680;BME280;3376;42.664;23.346;2023-04-28T09:15:33;94890.16;;;15.85;34.51
6680;BME280;3376;42.664;23.346;2023-04-28T09:18:01;94772.06;;;15.22;35.25
6680;BME280;3376;42.664;23.346;2023-04-28T09:20:29;94862.59;;;15.76;34.51
6680;BME280;3376;42.664;23.346;2023-04-28T09:23:12;94891.59;;;15.94;35.02
6680;BME280;3376;42.664;23.346;2023-04-28T09:25:39;94874.13;;;16.01;34.91
6680;BME280;3376;42.664;23.346;2023-04-28T09:28:19;94862.25;;;16.31;34.02
6680;BME280;3376;42.664;23.346;2023-04-28T09:30:46;94883.94;;;16.77;33.63
6680;BME280;3376;42.664;23.346;2023-04-28T09:33:13;94877.06;;;16.96;34.16
6680;BME280;3376;42.664;23.346;2023-04-28T09:35:40;94881.44;;;17.15;32.01
6680;BME280;3376;42.664;23.346;2023-04-28T09:38:07;94868.88;;;17.30;32.00
6680;BME280;3376;42.664;23.346;2023-04-28T09:40:48;94864.09;;;17.20;32.75
6680;BME280;3376;42.664;23.346;2023-04-28T09:43:22;94875.31;;;17.34;32.28
6680;BME280;3376;42.664;23.346;2023-04-28T09:45:49;94857.94;;;17.52;33.40
6680;BME280;3376;42.664;23.346;2023-04-28T09:48:16;94847.81;;;17.63;31.81
6680;BME280;3376;42.664;23.346;2023-04-28T09:50:43;94860.78;;;17.51;31.91
6680;BME280;3376;42.664;23.346;2023-04-28T09:53:11;94855.53;;;17.51;32.09
6680;BME280;3376;42.664;23.346;2023-04-28T09:55:42;94853.38;;;17.73;30.90
6680;BME280;3376;42.664;23.346;2023-04-28T09:58:11;94853.91;;;17.56;31.63
6680;BME280;3376;42.664;23.346;2023-04-28T10:00:39;94847.91;;;17.81;30.96
6680;BME280;3376;42.664;23.346;2023-04-28T10:03:08;94843.00;;;18.15;29.71
6680;BME280;3376;42.664;23.346;2023-04-28T10:05:36;94838.50;;;18.22;29.79
6680;BME280;3376;42.664;23.346;2023-04-28T10:08:05;94826.00;;;18.00;29.94
6680;BME280;3376;42.664;23.346;2023-04-28T10:10:32;94837.66;;;18.04;29.31
6680;BME280;3376;42.664;23.346;2023-04-28T10:13:01;94818.03;;;18.13;29.43
6680;BME280;3376;42.664;23.346;2023-04-28T10:15:29;94833.06;;;17.99;29.36
6680;BME280;3376;42.664;23.346;2023-04-28T10:17:56;94823.38;;;18.00;30.20
6680;BME280;3376;42.664;23.346;2023-04-28T10:20:24;94830.47;;;18.17;29.73
6680;BME280;3376;42.664;23.346;2023-04-28T10:23:03;94827.50;;;18.38;29.30
6680;BME280;3376;42.664;23.346;2023-04-28T10:25:35;94833.53;;;18.14;30.12
6680;BME280;3376;42.664;23.346;2023-04-28T10:28:06;94824.88;;;17.83;31.57
6680;BME280;3376;42.664;23.346;2023-04-28T10:30:34;94825.06;;;18.12;30.06
6680;BME280;3376;42.664;23.346;2023-04-28T10:33:21;94811.56;;;18.40;29.72
6680;BME280;3376;42.664;23.346;2023-04-28T10:35:48;94820.47;;;18.32;29.67
6680;BME280;3376;42.664;23.346;2023-04-28T10:38:16;94808.53;;;17.87;29.39
6680;BME280;3376;42.664;23.346;2023-04-28T10:40:44;94824.81;;;17.96;29.57
6680;BME280;3376;42.664;23.346;2023-04-28T10:43:14;94810.06;;;18.01;29.98
6680;BME280;3376;42.664;23.346;2023-04-28T10:46:02;94811.75;;;17.89;29.00
6680;BME280;3376;42.664;23.346;2023-04-28T10:49:03;94810.84;;;18.02;29.58
6680;BME280;3376;42.664;23.346;2023-04-28T10:51:31;94795.75;;;17.97;27.91
6680;BME280;3376;42.664;23.346;2023-04-28T10:54:14;94782.94;;;17.89;30.18
6680;BME280;3376;42.664;23.346;2023-04-28T11:00:25;94790.91;;;18.01;28.73
6680;BME280;3376;42.664;23.346;2023-04-28T11:02:53;94781.41;;;18.24;31.35
6680;BME280;3376;42.664;23.346;2023-04-28T11:05:20;94772.69;;;18.30;33.90
6680;BME280;3376;42.664;23.346;2023-04-28T11:11:19;94779.69;;;18.36;35.46
6680;BME280;3376;42.664;23.346;2023-04-28T11:13:47;94771.78;;;18.61;30.51
6680;BME280;3376;42.664;23.346;2023-04-28T11:16:18;94774.25;;;18.74;30.49
6680;BME280;3376;42.664;23.346;2023-04-28T11:18:53;94775.91;;;19.05;31.36
6680;BME280;3376;42.664;23.346;2023-04-28T11:21:22;94774.50;;;19.20;32.80
6680;BME280;3376;42.664;23.346;2023-04-28T11:23:49;94767.31;;;19.16;29.20
6680;BME280;3376;42.664;23.346;2023-04-28T11:26:18;94773.06;;;19.06;28.19
6680;BME280;3376;42.664;23.346;2023-04-28T11:28:49;94766.16;;;18.75;32.82
6680;BME280;3376;42.664;23.346;2023-04-28T11:31:18;94766.69;;;18.84;33.08
6680;BME280;3376;42.664;23.346;2023-04-28T11:33:53;94737.38;;;18.87;30.30
6680;BME280;3376;42.664;23.346;2023-04-28T11:36:30;94750.41;;;18.94;31.69
6680;BME280;3376;42.664;23.346;2023-04-28T11:38:59;94750.41;;;19.23;29.15
6680;BME280;3376;42.664;23.346;2023-04-28T11:41:26;94757.06;;;19.26;28.35
6680;BME280;3376;42.664;23.346;2023-04-28T11:43:53;94750.06;;;19.38;27.62
6680;BME280;3376;42.664;23.346;2023-04-28T11:46:22;94755.41;;;19.31;28.93
6680;BME280;3376;42.664;23.346;2023-04-28T11:48:59;94749.53;;;19.29;27.11
6680;BME280;3376;42.664;23.346;2023-04-28T11:51:28;94741.13;;;19.09;26.91
6680;BME280;3376;42.664;23.346;2023-04-28T11:53:55;94744.50;;;18.98;28.64
6680;BME280;3376;42.664;23.346;2023-04-28T11:56:22;94744.53;;;19.10;27.94
6680;BME280;3376;42.664;23.346;2023-04-28T11:58:59;94745.03;;;19.18;27.32
6680;BME280;3376;42.664;23.346;2023-04-28T12:01:28;94736.13;;;19.37;27.28
6680;BME280;3376;42.664;23.346;2023-04-28T12:03:54;94723.34;;;19.41;26.31
6680;BME280;3376;42.664;23.346;2023-04-28T12:06:21;94736.91;;;19.67;26.08
6680;BME280;3376;42.664;23.346;2023-04-28T12:08:48;94728.84;;;19.51;30.02
6680;BME280;3376;42.664;23.346;2023-04-28T12:11:16;94740.44;;;19.73;28.06
6680;BME280;3376;42.664;23.346;2023-04-28T12:13:43;94721.00;;;19.62;28.24
6680;BME280;3376;42.664;23.346;2023-04-28T12:16:10;94730.47;;;19.52;31.10
6680;BME280;3376;42.664;23.346;2023-04-28T12:18:57;94722.88;;;19.44;27.74
6680;BME280;3376;42.664;23.346;2023-04-28T12:21:24;94699.22;;;19.44;28.39
6680;BME280;3376;42.664;23.346;2023-04-28T12:23:51;94719.59;;;19.48;27.53
6680;BME280;3376;42.664;23.346;2023-04-28T12:26:23;94692.28;;;19.49;27.33
6680;BME280;3376;42.664;23.346;2023-04-28T12:28:51;94707.03;;;19.62;29.32
6680;BME280;3376;42.664;23.346;2023-04-28T12:31:18;94707.06;;;19.85;29.48
6680;BME280;3376;42.664;23.346;2023-04-28T12:33:46;94704.66;;;19.83;28.51
6680;BME280;3376;42.664;23.346;2023-04-28T12:36:15;94694.25;;;19.88;28.60
6680;BME280;3376;42.664;23.346;2023-04-28T12:38:46;94696.31;;;19.63;27.24
6680;BME280;3376;42.664;23.346;2023-04-28T12:41:13;94698.59;;;19.60;29.25
6680;BME280;3376;42.664;23.346;2023-04-28T12:43:40;94682.31;;;19.40;28.15
6680;BME280;3376;42.664;23.346;2023-04-28T12:46:09;94690.19;;;19.10;31.70
6680;BME280;3376;42.664;23.346;2023-04-28T12:48:39;94703.66;;;19.02;29.44
6680;BME280;3376;42.664;23.346;2023-04-28T12:51:07;94687.69;;;18.86;28.52
6680;BME280;3376;42.664;23.346;2023-04-28T12:53:34;94683.16;;;18.63;28.85
6680;BME280;3376;42.664;23.346;2023-04-28T12:56:00;94666.97;;;18.66;28.96
6680;BME280;3376;42.664;23.346;2023-04-28T12:58:27;94669.59;;;18.66;29.22
6680;BME280;3376;42.664;23.346;2023-04-28T13:00:54;94680.72;;;18.61;28.73
6680;BME280;3376;42.664;23.346;2023-04-28T13:03:21;94672.94;;;18.73;29.92
6680;BME280;3376;42.664;23.346;2023-04-28T13:05:47;94666.69;;;18.56;28.89
6680;BME280;3376;42.664;23.346;2023-04-28T13:08:15;94675.34;;;18.74;29.25
6680;BME280;3376;42.664;23.346;2023-04-28T13:10:42;94651.94;;;18.55;28.29
6680;BME280;3376;42.664;23.346;2023-04-28T13:13:09;94662.66;;;18.53;29.25
6680;BME280;3376;42.664;23.346;2023-04-28T13:15:36;94652.34;;;18.40;28.38
6680;BME280;3376;42.664;23.346;2023-04-28T13:18:03;94670.75;;;18.16;29.85
6680;BME280;3376;42.664;23.346;2023-04-28T13:20:30;94670.16;;;18.14;31.71
6680;BME280;3376;42.664;23.346;2023-04-28T13:22:57;94670.66;;;18.22;30.30
6680;BME280;3376;42.664;23.346;2023-04-28T13:25:25;94664.78;;;18.45;31.35
6680;BME280;3376;42.664;23.346;2023-04-28T13:27:52;94652.41;;;18.52;29.56